Time;durP1;ratioP1;P1;durP2;ratioP2;P2;SDS_P1;SDS_P2;PMS_P1;PMS_P2;Temp;Humidity;BMP_temperature;BMP_pressure;BME280_temperature;BME280_humidity;BME280_pressure;Samples;Min_cycle;Max_cycle;Signal;HPM_P1;HPM_P2
2022/03/04 00:00:39;;;;;;;6.65;4.05;;;7.60;99.90;;;;;;5035488;28;20569;-52
2022/03/04 00:03:08;;;;;;;4.55;4.15;;;7.60;99.90;;;;;;5052663;28;20208;-53
2022/03/04 00:05:36;;;;;;;5.15;4.60;;;7.60;99.90;;;;;;5044463;28;20185;-53
2022/03/04 00:08:06;;;;;;;5.60;5.10;;;7.60;99.90;;;;;;5043691;28;20219;-51
2022/03/04 00:10:35;;;;;;;6.38;5.22;;;7.60;99.90;;;;;;5052735;28;20326;-53
2022/03/04 00:13:04;;;;;;;5.30;4.80;;;7.60;99.90;;;;;;5052300;28;20225;-53
2022/03/04 00:15:32;;;;;;;5.22;4.72;;;7.50;99.90;;;;;;5047956;28;20218;-54
2022/03/04 00:18:00;;;;;;;5.63;4.13;;;7.50;99.90;;;;;;5036470;28;20335;-54
2022/03/04 00:20:29;;;;;;;5.90;5.30;;;7.50;99.90;;;;;;5045774;28;20194;-52
2022/03/04 00:22:57;;;;;;;6.28;5.00;;;7.60;99.90;;;;;;5052184;28;20255;-54
2022/03/04 00:25:27;;;;;;;6.03;4.93;;;7.50;99.90;;;;;;5051953;28;20578;-53
2022/03/04 00:27:55;;;;;;;6.25;5.53;;;7.50;99.90;;;;;;5050752;28;20733;-53
2022/03/04 00:30:23;;;;;;;5.40;4.32;;;7.50;99.90;;;;;;5039333;28;20201;-54
2022/03/04 00:32:51;;;;;;;6.35;4.43;;;7.50;99.90;;;;;;5050806;28;20676;-54
2022/03/04 00:35:19;;;;;;;5.25;4.75;;;7.50;99.90;;;;;;5046376;28;20189;-54
2022/03/04 00:37:47;;;;;;;6.72;5.40;;;7.50;99.90;;;;;;5042308;28;20227;-53
2022/03/04 00:40:15;;;;;;;7.18;5.20;;;7.50;99.90;;;;;;5052114;28;20220;-53
2022/03/04 00:42:44;;;;;;;6.13;5.53;;;7.50;99.90;;;;;;5050092;28;20961;-53
2022/03/04 00:45:12;;;;;;;6.13;4.93;;;7.50;99.90;;;;;;5029458;28;20280;-51
2022/03/04 00:47:41;;;;;;;5.90;5.30;;;7.50;99.90;;;;;;5050838;28;20294;-52
2022/03/04 00:50:10;;;;;;;5.05;4.55;;;7.50;99.90;;;;;;5047890;28;20212;-53
2022/03/04 00:52:38;;;;;;;5.60;4.25;;;7.50;99.90;;;;;;5030968;28;20228;-54
2022/03/04 00:55:06;;;;;;;5.07;4.57;;;7.50;99.90;;;;;;5051306;28;20204;-54
2022/03/04 00:57:34;;;;;;;5.07;4.47;;;7.50;99.90;;;;;;5050835;28;20220;-54
2022/03/04 01:00:05;;;;;;;6.43;4.78;;;7.50;99.90;;;;;;5040155;28;20763;-53
2022/03/04 01:02:33;;;;;;;6.60;4.32;;;7.50;99.90;;;;;;5047504;28;20380;-53
2022/03/04 01:05:01;;;;;;;5.00;4.47;;;7.50;99.90;;;;;;5047747;28;20648;-54
2022/03/04 01:07:29;;;;;;;5.93;5.22;;;7.50;99.90;;;;;;5047488;28;20223;-52
2022/03/04 01:09:57;;;;;;;6.05;5.25;;;7.50;99.90;;;;;;5051828;28;20189;-52
2022/03/04 01:12:25;;;;;;;6.90;5.85;;;7.50;99.90;;;;;;5050874;28;20235;-55
2022/03/04 01:14:54;;;;;;;5.07;4.50;;;7.50;99.90;;;;;;5039573;28;20197;-53
2022/03/04 01:17:24;;;;;;;6.13;5.28;;;7.40;99.90;;;;;;5050930;28;20241;-53
2022/03/04 01:19:52;;;;;;;6.07;4.30;;;7.40;99.90;;;;;;5046773;28;20219;-54
2022/03/04 01:22:20;;;;;;;6.20;4.85;;;7.40;99.90;;;;;;5050427;28;20236;-54
2022/03/04 01:24:48;;;;;;;7.78;5.53;;;7.40;99.90;;;;;;5050418;28;20555;-53
2022/03/04 01:27:16;;;;;;;7.90;6.40;;;7.40;99.90;;;;;;5049972;28;20307;-54
2022/03/04 01:29:44;;;;;;;7.53;5.05;;;7.40;99.90;;;;;;5040713;28;20228;-52
2022/03/04 01:32:13;;;;;;;5.88;4.70;;;7.40;99.90;;;;;;5044631;28;20282;-53
2022/03/04 01:34:43;;;;;;;5.85;5.28;;;7.40;99.90;;;;;;5032430;28;20230;-53
2022/03/04 01:37:11;;;;;;;5.30;4.75;;;7.40;99.90;;;;;;5045086;28;20251;-52
2022/03/04 01:39:39;;;;;;;6.18;5.35;;;7.40;99.90;;;;;;5050336;28;20260;-53
2022/03/04 01:42:07;;;;;;;6.45;5.82;;;7.40;99.90;;;;;;5050257;28;20239;-54
2022/03/04 01:44:36;;;;;;;5.85;5.25;;;7.30;99.90;;;;;;5047791;28;20242;-53
2022/03/04 01:47:05;;;;;;;8.23;6.45;;;7.40;99.90;;;;;;5049976;28;20188;-52
2022/03/04 01:49:33;;;;;;;7.07;5.20;;;7.40;99.90;;;;;;5050915;28;20280;-53
2022/03/04 01:52:03;;;;;;;7.72;5.95;;;7.40;99.90;;;;;;5048638;28;20209;-54
2022/03/04 01:54:31;;;;;;;6.72;6.03;;;7.30;99.90;;;;;;5049983;28;20212;-53
2022/03/04 01:56:59;;;;;;;7.38;6.22;;;7.30;99.90;;;;;;5032561;28;20181;-53
2022/03/04 01:59:27;;;;;;;8.77;6.45;;;7.30;99.90;;;;;;5047560;28;20243;-54
2022/03/04 02:01:56;;;;;;;8.65;5.60;;;7.30;99.90;;;;;;5050345;28;20749;-54
2022/03/04 02:04:25;;;;;;;9.18;5.13;;;7.30;99.90;;;;;;5050047;28;20180;-54
2022/03/04 02:06:54;;;;;;;6.35;5.32;;;7.30;99.90;;;;;;5043894;28;20219;-55
2022/03/04 02:09:24;;;;;;;6.68;5.75;;;7.30;99.90;;;;;;5050635;28;20284;-54
2022/03/04 02:11:52;;;;;;;5.18;4.68;;;7.30;99.90;;;;;;5050412;28;20234;-53
2022/03/04 02:14:20;;;;;;;6.95;5.63;;;7.30;99.90;;;;;;5049812;28;20231;-54
2022/03/04 02:16:51;;;;;;;5.78;5.15;;;7.30;99.90;;;;;;5049358;28;20223;-51
2022/03/04 02:19:21;;;;;;;6.40;5.40;;;7.30;99.90;;;;;;5050053;28;20220;-53
2022/03/04 02:21:53;;;;;;;6.55;5.47;;;7.30;99.90;;;;;;5035184;28;20293;-51
2022/03/04 02:24:23;;;;;;;8.75;6.60;;;7.30;99.90;;;;;;5049188;28;20559;-54
2022/03/04 02:26:52;;;;;;;7.05;5.75;;;7.30;99.90;;;;;;5049815;28;20216;-53
2022/03/04 02:29:21;;;;;;;7.53;5.80;;;7.20;99.90;;;;;;5049720;28;20611;-53
2022/03/04 02:31:49;;;;;;;5.50;5.00;;;7.20;99.90;;;;;;5042599;28;20491;-54
2022/03/04 02:34:18;;;;;;;6.28;5.43;;;7.20;99.90;;;;;;5049166;28;20226;-53
2022/03/04 02:36:47;;;;;;;5.93;5.18;;;7.20;99.90;;;;;;5035483;28;20569;-53
2022/03/04 02:39:16;;;;;;;8.15;6.25;;;7.20;99.90;;;;;;5052297;28;20228;-53
2022/03/04 02:41:45;;;;;;;5.95;5.43;;;7.20;99.90;;;;;;5054529;28;20216;-53
2022/03/04 02:44:14;;;;;;;7.97;6.22;;;7.20;99.90;;;;;;5051140;28;20706;-54
2022/03/04 02:46:42;;;;;;;7.18;6.25;;;7.20;99.90;;;;;;5052012;28;20196;-53
2022/03/04 02:49:12;;;;;;;6.55;5.80;;;7.20;99.90;;;;;;5053592;28;20212;-54
2022/03/04 02:51:42;;;;;;;9.10;6.28;;;7.20;99.90;;;;;;5047196;28;20234;-53
2022/03/04 02:54:10;;;;;;;7.18;5.60;;;7.20;99.90;;;;;;5052941;28;20251;-53
2022/03/04 02:56:40;;;;;;;6.57;5.97;;;7.10;99.90;;;;;;5053736;28;20203;-52
2022/03/04 02:59:08;;;;;;;7.00;5.72;;;7.10;99.90;;;;;;5049911;28;20731;-55
2022/03/04 03:01:36;;;;;;;7.85;6.05;;;7.10;99.90;;;;;;5053777;28;20647;-53
2022/03/04 03:04:04;;;;;;;8.73;6.32;;;7.10;99.90;;;;;;5052147;28;20299;-54
2022/03/04 03:06:34;;;;;;;6.82;5.35;;;7.10;99.90;;;;;;5047159;28;20259;-52
2022/03/04 03:09:02;;;;;;;7.70;5.70;;;7.10;99.90;;;;;;5053279;28;20286;-53
2022/03/04 03:11:30;;;;;;;6.75;5.75;;;7.10;99.90;;;;;;5053664;28;20262;-53
2022/03/04 03:13:59;;;;;;;8.63;6.30;;;7.10;99.90;;;;;;5051464;28;20295;-54
2022/03/04 03:16:27;;;;;;;7.45;6.60;;;7.10;99.90;;;;;;5054165;28;20212;-54
2022/03/04 03:18:55;;;;;;;6.30;5.45;;;7.10;99.90;;;;;;5053283;28;20262;-54
2022/03/04 03:21:24;;;;;;;7.70;5.13;;;7.10;99.90;;;;;;5052912;28;20220;-52
2022/03/04 03:23:56;;;;;;;6.70;5.95;;;7.10;99.90;;;;;;5052867;28;20285;-53
2022/03/04 03:26:24;;;;;;;6.18;5.30;;;7.10;99.90;;;;;;5052912;28;20804;-54
2022/03/04 03:28:52;;;;;;;7.65;6.35;;;7.10;99.90;;;;;;5052570;28;20224;-53
2022/03/04 03:31:22;;;;;;;6.55;5.10;;;7.10;99.90;;;;;;5038181;28;20217;-53
2022/03/04 03:33:50;;;;;;;6.75;5.45;;;7.10;99.90;;;;;;5050182;28;20220;-53
2022/03/04 03:36:20;;;;;;;5.63;5.00;;;7.10;99.90;;;;;;5045729;28;20192;-53
2022/03/04 03:38:48;;;;;;;7.18;5.90;;;7.10;99.90;;;;;;5052793;28;20220;-54
2022/03/04 03:41:16;;;;;;;8.45;6.00;;;7.10;99.90;;;;;;5052905;28;20234;-53
2022/03/04 03:43:44;;;;;;;7.95;6.18;;;7.00;99.90;;;;;;5040959;28;20221;-53
2022/03/04 03:46:13;;;;;;;7.45;6.20;;;7.10;99.90;;;;;;5052790;28;20197;-53
2022/03/04 03:48:42;;;;;;;6.97;5.43;;;7.00;99.90;;;;;;5051595;28;20235;-52
2022/03/04 03:51:11;;;;;;;6.38;5.20;;;7.00;99.90;;;;;;5040547;28;20213;-52
2022/03/04 03:53:39;;;;;;;7.22;5.38;;;7.00;99.90;;;;;;5049808;28;20216;-53
2022/03/04 03:56:07;;;;;;;5.45;4.80;;;7.00;99.90;;;;;;5053732;28;20192;-53
2022/03/04 03:58:35;;;;;;;6.93;6.00;;;7.00;99.90;;;;;;5049901;28;20753;-54
2022/03/04 04:01:05;;;;;;;5.80;5.18;;;7.00;99.90;;;;;;5052296;28;20223;-55
2022/03/04 04:03:33;;;;;;;6.18;5.57;;;7.00;99.90;;;;;;5052195;28;20213;-53
2022/03/04 04:06:03;;;;;;;5.43;4.93;;;7.00;99.90;;;;;;5045145;28;20185;-54
2022/03/04 04:08:31;;;;;;;5.32;4.57;;;7.00;99.90;;;;;;5051804;28;20235;-52
2022/03/04 04:11:00;;;;;;;6.07;4.60;;;7.00;99.90;;;;;;5051821;28;20579;-52
2022/03/04 04:13:29;;;;;;;5.35;4.82;;;7.00;99.90;;;;;;5033626;28;20243;-54
2022/03/04 04:15:57;;;;;;;5.35;4.78;;;7.00;99.90;;;;;;5052075;28;20595;-53
2022/03/04 04:18:25;;;;;;;5.47;4.60;;;7.00;99.90;;;;;;5051287;28;20691;-53
2022/03/04 04:20:53;;;;;;;6.10;5.50;;;7.00;99.90;;;;;;5032915;28;20223;-53
2022/03/04 04:23:22;;;;;;;5.22;4.72;;;7.00;99.90;;;;;;5051244;28;20307;-54
2022/03/04 04:25:50;;;;;;;6.03;5.10;;;7.00;99.90;;;;;;5048154;28;20200;-54
2022/03/04 04:28:18;;;;;;;8.07;6.03;;;7.00;99.90;;;;;;5051626;28;20266;-53
2022/03/04 04:30:47;;;;;;;5.93;5.40;;;7.00;99.90;;;;;;5048445;28;20196;-54
2022/03/04 04:33:15;;;;;;;5.20;4.57;;;7.00;99.90;;;;;;5033802;28;20224;-53
2022/03/04 04:35:44;;;;;;;5.88;5.30;;;7.00;99.90;;;;;;5043980;28;20284;-54
2022/03/04 04:38:12;;;;;;;6.03;4.68;;;7.00;99.90;;;;;;5051233;28;20220;-53
2022/03/04 04:40:41;;;;;;;7.28;5.78;;;7.00;99.90;;;;;;5033304;28;20452;-53
2022/03/04 04:43:09;;;;;;;6.15;4.55;;;7.00;99.90;;;;;;5049784;28;20224;-53
2022/03/04 04:45:37;;;;;;;5.72;4.50;;;7.00;99.90;;;;;;5051421;28;20192;-53
2022/03/04 04:48:06;;;;;;;8.20;5.22;;;7.00;99.90;;;;;;5050882;28;20307;-55
2022/03/04 04:50:34;;;;;;;5.20;4.70;;;7.00;99.90;;;;;;5044305;28;20197;-53
2022/03/04 04:53:03;;;;;;;5.82;5.20;;;6.90;99.90;;;;;;5051190;28;20248;-54
2022/03/04 04:55:31;;;;;;;5.53;4.63;;;6.90;99.90;;;;;;5051075;28;20631;-52
2022/03/04 04:58:00;;;;;;;5.10;4.65;;;6.90;99.90;;;;;;5050117;28;20216;-53
2022/03/04 05:00:28;;;;;;;5.03;4.53;;;6.90;99.90;;;;;;5050761;28;20299;-54
2022/03/04 05:02:57;;;;;;;7.97;5.65;;;6.90;99.90;;;;;;5047969;28;20216;-52
2022/03/04 05:05:25;;;;;;;6.30;5.20;;;6.90;99.90;;;;;;5045834;28;20216;-53
2022/03/04 05:07:56;;;;;;;5.18;4.63;;;6.90;99.90;;;;;;5031545;28;20601;-53
2022/03/04 05:10:24;;;;;;;7.05;5.25;;;6.90;99.90;;;;;;5031847;28;20185;-54
2022/03/04 05:12:52;;;;;;;6.40;5.00;;;6.90;99.90;;;;;;5031158;28;20267;-54
2022/03/04 05:15:21;;;;;;;5.47;4.97;;;6.90;99.90;;;;;;5014111;28;20248;-55
2022/03/04 05:17:50;;;;;;;5.95;5.18;;;6.90;99.90;;;;;;5031584;28;20244;-53
2022/03/04 05:20:18;;;;;;;7.05;5.47;;;6.90;99.90;;;;;;5031247;28;20220;-54
2022/03/04 05:22:46;;;;;;;6.60;4.85;;;6.90;99.90;;;;;;5031042;28;20251;-54
2022/03/04 05:25:14;;;;;;;5.53;4.85;;;6.90;99.90;;;;;;5031503;28;20231;-53
2022/03/04 05:27:45;;;;;;;6.80;5.80;;;6.90;99.90;;;;;;5030840;28;20228;-52
2022/03/04 05:30:14;;;;;;;4.90;4.50;;;6.90;99.90;;;;;;5049262;28;20269;-53
2022/03/04 05:32:43;;;;;;;6.85;4.85;;;6.80;99.90;;;;;;5047858;28;20232;-53
2022/03/04 05:35:12;;;;;;;4.35;3.95;;;6.80;99.90;;;;;;5022500;28;20271;-54
2022/03/04 05:37:40;;;;;;;6.40;4.68;;;6.80;99.90;;;;;;5047915;28;20228;-54
2022/03/04 05:40:09;;;;;;;6.10;5.45;;;6.80;99.90;;;;;;5051093;28;20212;-53
2022/03/04 05:42:37;;;;;;;6.45;4.60;;;6.80;99.90;;;;;;5047858;28;20652;-52
2022/03/04 05:45:06;;;;;;;5.60;5.10;;;6.80;99.90;;;;;;5045950;28;20188;-53
2022/03/04 05:47:34;;;;;;;5.35;4.47;;;6.80;99.90;;;;;;5049713;28;20246;-53
2022/03/04 05:50:04;;;;;;;6.00;4.45;;;6.80;99.90;;;;;;5047385;28;20272;-54
2022/03/04 05:52:32;;;;;;;4.97;4.57;;;6.80;99.90;;;;;;5038457;28;20699;-53
2022/03/04 05:55:01;;;;;;;5.85;4.97;;;6.80;99.90;;;;;;5049675;28;20679;-53
2022/03/04 05:57:29;;;;;;;5.20;4.70;;;6.80;99.90;;;;;;5049818;28;20216;-54
2022/03/04 05:59:58;;;;;;;6.32;4.30;;;6.80;99.90;;;;;;5035581;28;20283;-53
2022/03/04 06:02:28;;;;;;;5.07;4.50;;;6.80;99.90;;;;;;5049573;28;20223;-53
2022/03/04 06:04:56;;;;;;;6.18;4.82;;;6.80;99.90;;;;;;5048012;28;20200;-53
2022/03/04 06:07:28;;;;;;;6.43;5.90;;;6.80;99.90;;;;;;5036949;28;20216;-53
2022/03/04 06:09:56;;;;;;;5.70;5.20;;;6.80;99.90;;;;;;5032410;28;20193;-52
2022/03/04 06:12:24;;;;;;;5.25;4.65;;;6.80;99.90;;;;;;5049005;28;20234;-52
2022/03/04 06:14:52;;;;;;;6.20;4.95;;;6.80;99.90;;;;;;5048021;28;20246;-53
2022/03/04 06:17:21;;;;;;;4.50;4.00;;;6.80;99.90;;;;;;5049639;28;20269;-54
2022/03/04 06:19:49;;;;;;;4.88;4.15;;;6.80;99.90;;;;;;5048334;28;21356;-54
2022/03/04 06:22:20;;;;;;;5.75;5.25;;;6.70;99.90;;;;;;5035904;28;20228;-53
2022/03/04 06:24:50;;;;;;;6.20;5.13;;;6.80;99.90;;;;;;5049582;28;20188;-54
2022/03/04 06:27:18;;;;;;;6.60;5.05;;;6.70;99.90;;;;;;5049779;28;20220;-53
2022/03/04 06:29:46;;;;;;;5.45;4.82;;;6.70;99.90;;;;;;5046688;28;20284;-54
2022/03/04 06:32:15;;;;;;;5.57;4.20;;;6.70;99.90;;;;;;5044297;28;20250;-52
2022/03/04 06:34:43;;;;;;;6.47;5.53;;;6.70;99.90;;;;;;5050214;28;20203;-54
2022/03/04 06:37:12;;;;;;;5.57;5.07;;;6.70;99.90;;;;;;5044048;28;20235;-55
2022/03/04 06:39:40;;;;;;;5.30;4.40;;;6.70;99.90;;;;;;5050005;28;20208;-53
2022/03/04 06:42:10;;;;;;;6.22;5.30;;;6.70;99.90;;;;;;5049572;28;20204;-53
2022/03/04 06:44:38;;;;;;;6.82;5.05;;;6.70;99.90;;;;;;5047116;28;20216;-53
2022/03/04 06:47:07;;;;;;;6.55;5.22;;;6.70;99.90;;;;;;5049155;28;20176;-52
2022/03/04 06:49:35;;;;;;;6.90;5.65;;;6.70;99.90;;;;;;5045050;28;20660;-52
2022/03/04 06:52:04;;;;;;;8.77;6.32;;;6.70;99.90;;;;;;5029531;28;20201;-52
2022/03/04 06:54:33;;;;;;;6.57;5.75;;;6.60;99.90;;;;;;5029918;28;20189;-54
2022/03/04 06:57:01;;;;;;;6.85;5.85;;;6.60;99.90;;;;;;5029834;28;20197;-50
2022/03/04 06:59:31;;;;;;;6.40;4.95;;;6.60;99.90;;;;;;5029410;28;20197;-55
2022/03/04 07:01:59;;;;;;;5.90;5.30;;;6.60;99.90;;;;;;5033031;28;20679;-52
2022/03/04 07:04:28;;;;;;;8.32;5.88;;;6.60;99.90;;;;;;5049773;28;20192;-55
2022/03/04 07:06:56;;;;;;;8.48;7.47;;;6.60;99.90;;;;;;5042603;28;20223;-52
2022/03/04 07:09:25;;;;;;;8.30;6.22;;;6.60;99.90;;;;;;5049700;28;20242;-52
2022/03/04 07:11:54;;;;;;;8.35;5.53;;;6.60;99.90;;;;;;5049190;28;20216;-53
2022/03/04 07:14:22;;;;;;;7.32;6.00;;;6.50;99.90;;;;;;5047606;28;20197;-54
2022/03/04 07:16:51;;;;;;;6.32;5.40;;;6.50;99.90;;;;;;5049113;28;20262;-52
2022/03/04 07:19:19;;;;;;;5.55;4.68;;;6.50;99.90;;;;;;5049687;28;20618;-53
2022/03/04 07:21:51;;;;;;;7.07;5.28;;;6.50;99.90;;;;;;5025469;28;20254;-54
2022/03/04 07:24:19;;;;;;;7.93;6.03;;;6.50;99.90;;;;;;5049897;28;20250;-53
2022/03/04 07:26:48;;;;;;;7.97;7.15;;;6.50;99.90;;;;;;5040216;28;20227;-54
2022/03/04 07:29:19;;;;;;;7.28;5.63;;;6.50;99.90;;;;;;5051715;28;20580;-53
2022/03/04 07:31:48;;;;;;;6.80;5.50;;;6.50;99.90;;;;;;5052670;28;20738;-55
2022/03/04 07:34:18;;;;;;;5.47;4.90;;;6.50;99.90;;;;;;5052433;28;20219;-52
2022/03/04 07:36:47;;;;;;;7.82;6.25;;;6.50;99.90;;;;;;5046361;28;20228;-52
2022/03/04 07:39:15;;;;;;;6.60;5.75;;;6.50;99.90;;;;;;5052321;28;20219;-53
2022/03/04 07:41:47;;;;;;;6.60;5.80;;;6.50;99.90;;;;;;5052684;28;20584;-52
2022/03/04 07:44:16;;;;;;;6.03;5.43;;;6.50;99.90;;;;;;5050230;28;20224;-52
2022/03/04 07:46:47;;;;;;;5.90;5.15;;;6.50;99.90;;;;;;5052857;28;20393;-53
2022/03/04 07:49:16;;;;;;;7.05;5.82;;;6.50;99.90;;;;;;5052554;28;20216;-54
2022/03/04 07:51:47;;;;;;;6.85;5.68;;;6.50;99.90;;;;;;5052100;28;20262;-54
2022/03/04 07:54:15;;;;;;;9.32;6.60;;;6.50;99.90;;;;;;5052024;28;20248;-53
2022/03/04 07:56:43;;;;;;;5.70;4.95;;;6.50;99.90;;;;;;5052571;28;20238;-54
2022/03/04 07:59:11;;;;;;;7.35;6.45;;;6.50;99.90;;;;;;5045405;28;20302;-53
2022/03/04 08:01:39;;;;;;;11.50;7.85;;;6.50;99.90;;;;;;5052396;28;20212;-54
2022/03/04 08:04:11;;;;;;;5.78;5.28;;;6.50;99.90;;;;;;5051360;28;20227;-54
2022/03/04 08:06:40;;;;;;;9.25;5.13;;;6.50;99.90;;;;;;5046245;28;20266;-53
2022/03/04 08:09:10;;;;;;;6.78;6.10;;;6.50;99.90;;;;;;5051430;28;20714;-52
2022/03/04 08:11:41;;;;;;;7.75;5.47;;;6.50;99.90;;;;;;5052250;28;20240;-55
2022/03/04 08:14:09;;;;;;;5.72;5.10;;;6.50;99.90;;;;;;5039125;28;20775;-54
2022/03/04 08:16:38;;;;;;;6.70;5.85;;;6.50;99.90;;;;;;5048612;28;20196;-52
2022/03/04 08:19:06;;;;;;;5.78;4.55;;;6.60;99.90;;;;;;5051925;28;20220;-53
2022/03/04 08:21:34;;;;;;;5.38;4.80;;;6.60;99.90;;;;;;5046031;28;20217;-53
2022/03/04 08:24:03;;;;;;;6.10;4.90;;;6.60;99.90;;;;;;5051188;28;20220;-53
2022/03/04 08:26:33;;;;;;;6.22;5.05;;;6.60;99.90;;;;;;5052115;28;20223;-51
2022/03/04 08:29:02;;;;;;;5.32;4.75;;;6.60;99.90;;;;;;5051563;28;20216;-52
2022/03/04 08:31:30;;;;;;;6.93;5.72;;;6.60;99.90;;;;;;5040780;28;20251;-54
2022/03/04 08:33:58;;;;;;;6.22;4.75;;;6.60;99.90;;;;;;5051637;28;20212;-52
2022/03/04 08:36:26;;;;;;;6.90;5.82;;;6.60;99.90;;;;;;5044833;28;20193;-52
2022/03/04 08:38:55;;;;;;;8.18;5.38;;;6.60;99.90;;;;;;5051559;28;20270;-51
2022/03/04 08:41:24;;;;;;;6.85;5.60;;;6.60;99.90;;;;;;5051310;28;20217;-54
2022/03/04 08:43:53;;;;;;;5.07;4.57;;;6.60;99.90;;;;;;5049267;28;20270;-54
2022/03/04 08:46:22;;;;;;;5.75;4.90;;;6.70;99.90;;;;;;5051731;28;20695;-54
2022/03/04 08:48:51;;;;;;;5.70;5.10;;;6.70;99.90;;;;;;5050705;28;20232;-53
2022/03/04 08:51:24;;;;;;;7.10;4.95;;;6.70;99.90;;;;;;5045192;28;20595;-54
2022/03/04 08:53:53;;;;;;;6.18;4.90;;;6.70;99.90;;;;;;5051169;28;20243;-54
2022/03/04 08:56:22;;;;;;;6.20;5.60;;;6.70;99.90;;;;;;5051600;28;20545;-53
2022/03/04 08:58:50;;;;;;;7.63;6.70;;;6.70;99.90;;;;;;5038791;28;20221;-51
2022/03/04 09:01:20;;;;;;;17.83;12.80;;;6.70;99.90;;;;;;5049720;28;20287;-52
2022/03/04 09:03:48;;;;;;;17.67;13.65;;;6.70;99.90;;;;;;5048542;28;20216;-54
2022/03/04 09:06:16;;;;;;;17.77;12.57;;;6.70;97.20;;;;;;5038532;28;20748;-52
2022/03/04 09:08:45;;;;;;;17.25;12.00;;;6.60;97.70;;;;;;5047891;28;20224;-51
2022/03/04 09:11:13;;;;;;;13.70;11.25;;;6.60;97.90;;;;;;5051803;28;20212;-54
2022/03/04 09:13:41;;;;;;;12.52;10.13;;;6.60;98.30;;;;;;5050933;28;20565;-54
2022/03/04 09:16:09;;;;;;;13.65;10.93;;;6.70;98.70;;;;;;5050301;28;20238;-53
2022/03/04 09:18:39;;;;;;;11.82;9.77;;;6.70;98.90;;;;;;5050066;28;20700;-54
2022/03/04 09:21:08;;;;;;;12.85;10.20;;;6.70;99.10;;;;;;5043713;28;20262;-54
2022/03/04 09:23:36;;;;;;;13.85;10.23;;;6.70;99.20;;;;;;5049406;28;20220;-54
2022/03/04 09:26:08;;;;;;;11.48;9.90;;;6.70;99.50;;;;;;5048503;28;20185;-53
2022/03/04 09:28:37;;;;;;;12.65;9.77;;;6.70;99.60;;;;;;5040112;28;20253;-52
2022/03/04 09:31:09;;;;;;;12.32;10.20;;;6.70;99.60;;;;;;5051135;28;20274;-53
2022/03/04 09:33:39;;;;;;;14.32;9.18;;;6.70;99.80;;;;;;5032336;28;20220;-54
2022/03/04 09:36:11;;;;;;;11.73;9.60;;;6.70;99.80;;;;;;5039660;28;20242;-53
2022/03/04 09:38:41;;;;;;;15.43;11.07;;;6.70;99.80;;;;;;5049075;28;20216;-52
2022/03/04 09:41:10;;;;;;;13.32;10.57;;;6.70;99.80;;;;;;5050392;28;20216;-53
2022/03/04 09:43:39;;;;;;;11.40;9.73;;;6.70;99.90;;;;;;5049293;28;20425;-53
2022/03/04 09:46:08;;;;;;;12.10;9.40;;;6.70;99.90;;;;;;5031920;28;20246;-54
2022/03/04 09:48:43;;;;;;;11.93;9.27;;;6.70;99.90;;;;;;5048621;28;20224;-54
2022/03/04 09:51:12;;;;;;;10.68;8.95;;;6.70;99.90;;;;;;5048900;28;20304;-53
2022/03/04 09:53:41;;;;;;;12.65;9.45;;;6.70;99.90;;;;;;5048769;28;20358;-53
2022/03/04 09:56:09;;;;;;;12.27;9.15;;;6.70;99.90;;;;;;5050173;28;20250;-52
2022/03/04 09:58:38;;;;;;;13.68;10.18;;;6.70;99.90;;;;;;5047982;28;20248;-52
2022/03/04 10:01:10;;;;;;;12.23;9.13;;;6.70;99.90;;;;;;5046600;28;20204;-53
2022/03/04 10:03:45;;;;;;;11.27;9.40;;;6.70;99.90;;;;;;5047744;28;20414;-53
2022/03/04 10:06:14;;;;;;;11.73;8.75;;;6.70;99.90;;;;;;5048971;28;20404;-53
2022/03/04 10:08:43;;;;;;;12.95;10.00;;;6.70;99.90;;;;;;5048623;28;20246;-54
2022/03/04 10:11:13;;;;;;;10.93;8.60;;;6.70;99.90;;;;;;5049918;28;20209;-54
2022/03/04 10:13:44;;;;;;;9.45;8.45;;;6.70;99.90;;;;;;5047972;28;20219;-53
2022/03/04 10:16:17;;;;;;;9.68;7.68;;;6.70;99.90;;;;;;5031895;28;20188;-54
2022/03/04 10:19:05;;;;;;;12.30;8.90;;;6.70;99.90;;;;;;5049609;28;20289;-53
2022/03/04 10:21:48;;;;;;;12.48;9.40;;;6.70;99.90;;;;;;5048510;28;20220;-51
2022/03/04 10:24:17;;;;;;;12.65;9.27;;;6.70;99.90;;;;;;5048527;28;20311;-53
2022/03/04 10:26:46;;;;;;;11.32;7.97;;;6.70;99.90;;;;;;5049951;28;20224;-54
2022/03/04 10:29:20;;;;;;;11.45;8.65;;;6.70;99.90;;;;;;5045883;28;20227;-51
2022/03/04 10:32:08;;;;;;;12.93;9.52;;;6.70;99.90;;;;;;5049824;28;20623;-54
2022/03/04 10:34:48;;;;;;;8.98;7.75;;;6.70;99.90;;;;;;5046933;28;20211;-53
2022/03/04 10:37:19;;;;;;;10.70;9.18;;;6.70;99.90;;;;;;5048326;28;20266;-54
2022/03/04 10:40:10;;;;;;;9.52;7.70;;;6.70;99.90;;;;;;5047818;28;20528;-54
2022/03/04 10:42:44;;;;;;;12.38;8.68;;;6.70;99.90;;;;;;5045289;28;20305;-53
2022/03/04 10:45:14;;;;;;;10.40;8.90;;;6.70;99.90;;;;;;5045038;28;20618;-54
2022/03/04 10:47:45;;;;;;;10.50;9.40;;;6.70;99.90;;;;;;5030114;28;20217;-51
2022/03/04 10:50:16;;;;;;;12.18;9.23;;;6.70;99.90;;;;;;5033370;28;20287;-55
2022/03/04 10:52:52;;;;;;;11.82;9.48;;;6.70;99.90;;;;;;5049574;28;20224;-54
2022/03/04 10:55:39;;;;;;;8.70;7.38;;;6.70;99.90;;;;;;5049941;28;20218;-52
2022/03/04 10:58:14;;;;;;;11.18;8.90;;;6.70;99.90;;;;;;5048752;28;20223;-53
2022/03/04 11:00:44;;;;;;;10.35;9.27;;;6.70;99.90;;;;;;5050809;28;20195;-53
2022/03/04 11:03:19;;;;;;;9.93;8.65;;;6.70;99.90;;;;;;5053171;28;20236;-54
2022/03/04 11:05:51;;;;;;;9.38;7.95;;;6.70;99.90;;;;;;5046725;28;20271;-53
2022/03/04 11:08:20;;;;;;;10.98;8.57;;;6.70;99.90;;;;;;5039958;28;20216;-53
2022/03/04 11:10:49;;;;;;;10.48;8.43;;;6.70;99.90;;;;;;5053230;28;20284;-53
2022/03/04 11:13:17;;;;;;;10.25;8.45;;;6.70;99.90;;;;;;5052019;28;20714;-54
2022/03/04 11:15:47;;;;;;;10.90;7.43;;;6.70;99.90;;;;;;5044953;28;20599;-53
2022/03/04 11:18:18;;;;;;;10.00;7.65;;;6.70;99.90;;;;;;5051614;28;20647;-54
2022/03/04 11:20:50;;;;;;;9.23;7.40;;;6.70;99.90;;;;;;5046838;28;20205;-54
2022/03/04 11:23:21;;;;;;;13.45;8.80;;;6.70;99.90;;;;;;5052052;28;20216;-54
2022/03/04 11:25:55;;;;;;;9.02;7.90;;;6.70;99.90;;;;;;5051755;28;20681;-53
2022/03/04 11:28:27;;;;;;;10.27;7.60;;;6.70;99.90;;;;;;5052394;28;20222;-53
2022/03/04 11:31:00;;;;;;;10.10;7.57;;;6.70;99.90;;;;;;5047027;28;20254;-53
2022/03/04 11:33:31;;;;;;;11.45;8.10;;;6.70;99.90;;;;;;5052218;28;20220;-53
2022/03/04 11:36:10;;;;;;;10.23;8.20;;;6.70;99.90;;;;;;5044500;28;20204;-55
2022/03/04 11:38:59;;;;;;;13.27;8.02;;;6.70;99.90;;;;;;5047617;28;20595;-54
2022/03/04 11:41:40;;;;;;;10.68;7.72;;;6.70;99.90;;;;;;5049731;28;20216;-52
2022/03/04 11:44:17;;;;;;;9.60;8.60;;;6.70;99.90;;;;;;5050516;28;20345;-52
2022/03/04 11:46:49;;;;;;;9.00;7.97;;;6.70;99.90;;;;;;5050486;28;20193;-51
2022/03/04 11:49:28;;;;;;;9.98;7.95;;;6.60;99.90;;;;;;5051976;28;20634;-54
2022/03/04 11:52:24;;;;;;;9.60;8.60;;;6.70;99.90;;;;;;5036271;28;20254;-52
2022/03/04 11:55:27;;;;;;;10.75;7.88;;;6.70;99.90;;;;;;5052528;28;20644;-51
2022/03/04 11:58:00;;;;;;;10.70;7.65;;;6.70;99.90;;;;;;5052368;28;20242;-52
2022/03/04 12:00:30;;;;;;;8.85;7.22;;;6.70;99.90;;;;;;5051308;28;20602;-54
2022/03/04 12:03:13;;;;;;;9.90;7.93;;;6.70;99.90;;;;;;5052347;28;20295;-54
2022/03/04 12:05:47;;;;;;;9.15;7.95;;;6.60;99.90;;;;;;5043931;28;20205;-53
2022/03/04 12:08:18;;;;;;;10.63;8.00;;;6.70;99.90;;;;;;5046649;28;20215;-55
2022/03/04 12:10:53;;;;;;;9.95;7.03;;;6.70;99.90;;;;;;5051641;28;20219;-53
2022/03/04 12:13:24;;;;;;;9.77;7.00;;;6.60;99.90;;;;;;5049910;28;20226;-53
2022/03/04 12:15:59;;;;;;;7.40;6.60;;;6.70;99.90;;;;;;5043931;28;20207;-55
2022/03/04 12:18:37;;;;;;;9.90;7.53;;;6.70;99.90;;;;;;5051573;28;20227;-53
2022/03/04 12:21:13;;;;;;;8.77;7.28;;;6.70;99.90;;;;;;5045264;28;20298;-53
2022/03/04 12:24:02;;;;;;;8.50;7.53;;;6.70;99.90;;;;;;5051502;28;20255;-54
2022/03/04 12:26:43;;;;;;;8.23;7.43;;;6.70;99.90;;;;;;5051817;28;20212;-54
2022/03/04 12:29:13;;;;;;;9.85;6.72;;;6.70;99.90;;;;;;5046072;28;20624;-53
2022/03/04 12:31:44;;;;;;;11.45;7.35;;;6.70;99.90;;;;;;5050091;28;20215;-53
2022/03/04 12:34:20;;;;;;;9.43;7.70;;;6.70;99.90;;;;;;5051161;28;20224;-54
2022/03/04 12:36:48;;;;;;;8.18;6.10;;;6.70;99.90;;;;;;5046118;28;20195;-53
2022/03/04 12:39:20;;;;;;;8.57;6.90;;;6.70;99.90;;;;;;5048204;28;20223;-53
2022/03/04 12:41:49;;;;;;;8.75;6.88;;;6.70;99.90;;;;;;5051347;28;20212;-54
2022/03/04 12:44:17;;;;;;;8.93;5.57;;;6.70;99.90;;;;;;5039479;28;20302;-53
2022/03/04 12:46:47;;;;;;;8.93;6.75;;;6.70;99.90;;;;;;5047019;28;20204;-53
2022/03/04 12:49:19;;;;;;;14.20;8.20;;;6.70;99.90;;;;;;5051221;28;20224;-53
2022/03/04 12:51:47;;;;;;;10.45;8.40;;;6.70;99.90;;;;;;5034535;28;20299;-52
2022/03/04 12:54:19;;;;;;;11.82;8.48;;;6.70;99.90;;;;;;5031384;28;20213;-54
2022/03/04 12:56:51;;;;;;;13.77;10.75;;;6.70;99.90;;;;;;5032466;28;20201;-54
2022/03/04 12:59:21;;;;;;;11.13;9.23;;;6.70;99.90;;;;;;5031183;28;20225;-53
2022/03/04 13:01:51;;;;;;;13.52;10.23;;;6.70;99.90;;;;;;5052179;28;20643;-53
2022/03/04 13:04:22;;;;;;;10.27;8.80;;;6.70;99.90;;;;;;5050663;28;20297;-53
2022/03/04 13:06:57;;;;;;;11.30;9.30;;;6.70;99.90;;;;;;5034738;28;20198;-51
2022/03/04 13:09:27;;;;;;;11.27;8.93;;;6.70;99.90;;;;;;5031891;28;20216;-53